Time;durP1;ratioP1;P1;durP2;ratioP2;P2;SDS_P1;SDS_P2;PMS_P1;PMS_P2;Temp;Humidity;BMP_temperature;BMP_pressure;BME280_temperature;BME280_humidity;BME280_pressure;Samples;Min_cycle;Max_cycle;Signal;HPM_P1;HPM_P2
2021/01/30 00:02:12;;;;;;;13.60;5.55;;;9.70;99.90;;;;;;5030689;28;20395;-86
2021/01/30 00:04:38;;;;;;;15.73;5.40;;;9.80;99.90;;;;;;5028379;28;20096;-86
2021/01/30 00:07:04;;;;;;;15.63;5.20;;;9.70;99.90;;;;;;5028688;28;20069;-87
2021/01/30 00:09:31;;;;;;;17.77;6.18;;;9.80;99.90;;;;;;5032101;28;20053;-86
2021/01/30 00:11:59;;;;;;;11.40;4.75;;;9.80;99.90;;;;;;5032052;28;20021;-86
2021/01/30 00:14:28;;;;;;;15.38;5.82;;;9.70;99.90;;;;;;5030772;28;20028;-87
2021/01/30 00:16:54;;;;;;;12.43;5.40;;;9.50;99.90;;;;;;5030076;28;20025;-86
2021/01/30 00:19:20;;;;;;;11.55;5.18;;;9.40;99.90;;;;;;5030823;28;20042;-86
2021/01/30 00:21:50;;;;;;;14.13;5.72;;;9.40;99.90;;;;;;5031719;28;20028;-91
2021/01/30 00:24:46;;;;;;;15.68;5.60;;;9.30;99.90;;;;;;5031735;28;20029;-88
2021/01/30 00:27:14;;;;;;;14.85;5.70;;;9.40;99.90;;;;;;5031552;28;20105;-85
2021/01/30 00:29:41;;;;;;;17.67;6.20;;;9.30;99.90;;;;;;5031209;28;20021;-85
2021/01/30 00:32:08;;;;;;;16.27;5.97;;;9.30;99.90;;;;;;5032423;28;20026;-85
2021/01/30 00:34:35;;;;;;;15.75;5.78;;;9.30;99.90;;;;;;5035088;28;20479;-85
2021/01/30 00:37:11;;;;;;;11.55;4.85;;;9.30;99.90;;;;;;5035368;28;20040;-86
2021/01/30 00:39:38;;;;;;;12.57;5.13;;;9.30;99.90;;;;;;5035359;28;20372;-85
2021/01/30 00:42:05;;;;;;;12.00;4.55;;;9.20;99.90;;;;;;5034829;28;20045;-85
2021/01/30 00:44:30;;;;;;;13.32;5.22;;;9.20;99.90;;;;;;5034521;28;20056;-86
2021/01/30 00:46:57;;;;;;;16.35;5.25;;;9.10;99.90;;;;;;5035002;28;20056;-86
2021/01/30 00:49:24;;;;;;;12.50;4.80;;;9.00;99.90;;;;;;5034507;28;20033;-86
2021/01/30 00:51:50;;;;;;;13.05;4.50;;;9.00;99.90;;;;;;5035153;28;20104;-85
2021/01/30 00:54:16;;;;;;;11.45;4.45;;;9.10;99.90;;;;;;5035338;28;20037;-86
2021/01/30 00:56:42;;;;;;;10.02;4.50;;;9.20;99.90;;;;;;5034983;28;20034;-85
2021/01/30 00:59:08;;;;;;;10.55;4.40;;;9.20;99.90;;;;;;5034844;28;20021;-85
2021/01/30 01:01:40;;;;;;;10.73;4.28;;;9.30;99.90;;;;;;5035074;28;20032;-86
2021/01/30 01:04:06;;;;;;;11.57;4.35;;;9.20;99.90;;;;;;5034591;28;20029;-85
2021/01/30 01:06:33;;;;;;;10.13;4.47;;;9.00;99.90;;;;;;5034541;28;20053;-85
2021/01/30 01:09:00;;;;;;;13.75;4.80;;;8.90;99.90;;;;;;5035020;28;20453;-85
2021/01/30 01:11:25;;;;;;;10.95;4.60;;;8.90;99.90;;;;;;5035001;28;20021;-85
2021/01/30 01:13:51;;;;;;;19.60;4.93;;;8.90;99.90;;;;;;5034256;28;20082;-85
2021/01/30 01:16:17;;;;;;;12.13;4.50;;;8.90;99.90;;;;;;5034748;28;20171;-86
2021/01/30 01:18:45;;;;;;;11.18;4.35;;;8.90;99.90;;;;;;5033095;28;20450;-85
2021/01/30 01:21:11;;;;;;;14.50;4.35;;;8.90;99.90;;;;;;5034705;28;20072;-85
2021/01/30 01:23:39;;;;;;;10.88;3.85;;;8.80;99.90;;;;;;5035038;28;20456;-85
2021/01/30 01:26:05;;;;;;;10.60;3.25;;;8.80;99.90;;;;;;5034894;28;20028;-85
2021/01/30 01:28:30;;;;;;;12.45;3.42;;;8.80;99.90;;;;;;5034704;28;20025;-86
2021/01/30 01:30:56;;;;;;;13.65;3.70;;;8.90;99.90;;;;;;5034144;28;20029;-85
2021/01/30 01:33:21;;;;;;;10.90;3.10;;;8.90;99.90;;;;;;5033207;28;20029;-85
2021/01/30 01:35:47;;;;;;;13.80;3.58;;;8.90;99.90;;;;;;5034292;28;20048;-86
2021/01/30 01:38:12;;;;;;;10.55;3.50;;;8.90;99.90;;;;;;5034401;28;20100;-85
2021/01/30 01:40:40;;;;;;;13.00;4.22;;;9.00;99.90;;;;;;5034185;28;20033;-85
2021/01/30 01:43:11;;;;;;;8.38;3.50;;;9.00;99.90;;;;;;5033458;28;20450;-86
2021/01/30 01:45:38;;;;;;;11.27;4.32;;;9.00;99.90;;;;;;5034118;28;20025;-85
2021/01/30 01:48:10;;;;;;;9.38;4.00;;;8.90;99.90;;;;;;5033161;28;20052;-86
2021/01/30 01:50:43;;;;;;;11.60;4.35;;;8.90;99.90;;;;;;5034186;28;20090;-85
2021/01/30 01:53:19;;;;;;;11.65;4.15;;;8.60;99.90;;;;;;5032684;28;20388;-85
2021/01/30 01:55:50;;;;;;;13.45;4.10;;;8.40;99.90;;;;;;5034041;28;20022;-85
2021/01/30 01:58:16;;;;;;;9.85;3.88;;;8.40;99.90;;;;;;5033644;28;20078;-85
2021/01/30 02:00:46;;;;;;;10.95;3.83;;;8.40;99.90;;;;;;5032331;28;20112;-85
2021/01/30 02:03:12;;;;;;;12.38;4.35;;;8.30;99.90;;;;;;5032126;28;20167;-85
2021/01/30 02:05:39;;;;;;;14.48;4.45;;;8.30;99.90;;;;;;5033660;28;20065;-86
2021/01/30 02:08:13;;;;;;;11.57;4.55;;;8.30;99.90;;;;;;5033495;28;20156;-85
2021/01/30 02:10:48;;;;;;;11.48;4.32;;;8.20;99.90;;;;;;5033180;28;20041;-85
2021/01/30 02:13:54;;;;;;;11.98;4.18;;;8.30;99.90;;;;;;5033598;28;20038;-85
2021/01/30 02:16:48;;;;;;;10.57;4.55;;;8.20;99.90;;;;;;5032495;28;20499;-85
2021/01/30 02:19:47;;;;;;;8.90;3.70;;;8.30;99.90;;;;;;5014086;28;20038;-85
2021/01/30 02:22:31;;;;;;;9.90;3.67;;;8.30;99.90;;;;;;5032029;28;20521;-86
2021/01/30 02:25:15;;;;;;;11.90;4.28;;;8.40;99.90;;;;;;5032839;28;20028;-86
2021/01/30 02:27:59;;;;;;;10.48;3.97;;;8.40;99.90;;;;;;5033170;28;20024;-85
2021/01/30 02:30:33;;;;;;;14.95;4.25;;;8.50;99.90;;;;;;5033462;28;20025;-85
2021/01/30 02:33:17;;;;;;;13.20;3.80;;;8.40;99.90;;;;;;5032704;28;20038;-85
2021/01/30 02:36:19;;;;;;;9.80;4.05;;;8.30;99.90;;;;;;5033874;28;20168;-85
2021/01/30 02:39:19;;;;;;;14.93;4.80;;;8.10;99.90;;;;;;5033663;28;20440;-85
2021/01/30 02:42:03;;;;;;;13.43;4.28;;;7.90;99.90;;;;;;5027072;28;20039;-85
2021/01/30 02:44:36;;;;;;;13.38;4.43;;;7.90;99.90;;;;;;5032966;28;20039;-85
2021/01/30 02:47:02;;;;;;;11.95;3.88;;;7.70;1.00;;;;;;5032689;28;20025;-86
2021/01/30 02:49:33;;;;;;;9.45;3.97;;;8.00;1.00;;;;;;5030264;28;20096;-85
2021/01/30 02:52:22;;;;;;;11.50;4.15;;;7.60;1.00;;;;;;5033085;28;20482;-85
2021/01/30 02:54:53;;;;;;;13.88;4.68;;;7.70;1.00;;;;;;5032642;28;20482;-85
2021/01/30 02:57:20;;;;;;;13.35;4.32;;;8.10;1.00;;;;;;5032558;28;20021;-85
2021/01/30 02:59:52;;;;;;;10.45;3.58;;;7.60;1.00;;;;;;5032678;28;20113;-85
2021/01/30 03:02:20;;;;;;;15.27;4.20;;;7.60;1.00;;;;;;5032237;28;20422;-85
2021/01/30 03:04:49;;;;;;;9.25;4.05;;;7.60;1.00;;;;;;5032619;28;20418;-86
2021/01/30 03:07:52;;;;;;;15.55;3.95;;;7.60;1.00;;;;;;5032857;28;20052;-85
2021/01/30 03:10:58;;;;;;;12.63;3.75;;;7.60;1.00;;;;;;5032020;28;20371;-85
2021/01/30 03:13:33;;;;;;;12.55;3.78;;;7.60;1.00;;;;;;4942104;29;20038;-85
2021/01/30 03:16:04;;;;;;;9.93;3.08;;;7.60;1.00;;;;;;4937689;29;20040;-85
2021/01/30 03:18:36;;;;;;;11.10;4.32;;;7.60;1.00;;;;;;4951904;29;20400;-85
2021/01/30 03:21:08;;;;;;;13.05;3.97;;;7.60;1.00;;;;;;4951910;29;20043;-86
2021/01/30 03:23:35;;;;;;;10.55;3.55;;;7.60;1.00;;;;;;4940764;29;20036;-85
2021/01/30 03:26:05;;;;;;;10.90;2.95;;;7.80;1.00;;;;;;4933670;29;20486;-85
2021/01/30 03:28:31;;;;;;;9.43;3.05;;;7.70;1.00;;;;;;4952670;29;20043;-85
2021/01/30 03:30:56;;;;;;;8.43;3.03;;;8.00;1.00;;;;;;4953112;29;20082;-85
2021/01/30 03:33:22;;;;;;;10.85;3.08;;;7.50;1.00;;;;;;4945471;29;20572;-85
2021/01/30 03:35:48;;;;;;;8.32;3.10;;;7.50;1.00;;;;;;4947295;29;20039;-86
2021/01/30 03:38:13;;;;;;;11.60;3.75;;;7.50;1.00;;;;;;4952431;29;20089;-86
2021/01/30 03:40:40;;;;;;;8.93;3.55;;;7.50;1.00;;;;;;4952406;29;20505;-86
2021/01/30 03:43:06;;;;;;;11.52;4.20;;;7.50;1.00;;;;;;4933650;29;20059;-85
2021/01/30 03:45:32;;;;;;;11.82;3.72;;;7.20;1.00;;;;;;4951638;29;20115;-85
2021/01/30 03:48:02;;;;;;;11.70;3.97;;;7.20;1.00;;;;;;5002956;28;20037;-86
2021/01/30 03:50:28;;;;;;;15.65;3.75;;;7.00;1.00;;;;;;5031871;28;20490;-85
2021/01/30 03:52:53;;;;;;;10.88;3.30;;;7.00;1.00;;;;;;5031340;28;20032;-85
2021/01/30 03:55:20;;;;;;;10.65;3.47;;;6.90;1.00;;;;;;5031821;28;20026;-85
2021/01/30 03:57:46;;;;;;;8.88;3.22;;;7.00;1.00;;;;;;5031440;28;20026;-86
2021/01/30 04:00:19;;;;;;;10.65;2.88;;;7.40;1.00;;;;;;5031085;28;20014;-85
2021/01/30 04:02:44;;;;;;;9.45;3.25;;;7.00;1.00;;;;;;5031438;28;20034;-85
2021/01/30 04:05:12;;;;;;;8.60;2.80;;;7.10;1.00;;;;;;5031535;28;20050;-85
2021/01/30 04:07:38;;;;;;;12.88;3.22;;;7.20;1.00;;;;;;5031931;28;20057;-85
2021/01/30 04:10:08;;;;;;;11.25;3.40;;;7.20;1.00;;;;;;5035221;28;20037;-85
2021/01/30 04:12:34;;;;;;;13.38;3.38;;;7.20;1.00;;;;;;5035399;28;20037;-85
2021/01/30 04:15:00;;;;;;;14.48;3.40;;;7.20;1.00;;;;;;5034399;28;20022;-85
2021/01/30 04:17:26;;;;;;;9.20;3.10;;;7.20;1.00;;;;;;5034187;28;20468;-85
2021/01/30 04:19:52;;;;;;;11.20;2.80;;;7.30;1.00;;;;;;5035175;28;20112;-85
2021/01/30 04:22:18;;;;;;;9.43;3.10;;;7.40;1.00;;;;;;5035235;28;20068;-85
2021/01/30 04:24:44;;;;;;;12.48;3.30;;;7.40;1.00;;;;;;5035219;28;20509;-85
2021/01/30 04:27:18;;;;;;;9.25;2.95;;;7.40;1.00;;;;;;5035273;28;20021;-85
2021/01/30 04:29:44;;;;;;;9.77;3.00;;;7.20;1.00;;;;;;5033756;28;20088;-85
2021/01/30 04:32:10;;;;;;;9.45;3.30;;;7.20;1.00;;;;;;5034179;28;20479;-85
2021/01/30 04:34:36;;;;;;;12.15;3.28;;;7.30;1.00;;;;;;5035037;28;20022;-85
2021/01/30 04:37:02;;;;;;;10.05;3.08;;;7.30;1.00;;;;;;5034783;28;20372;-85
2021/01/30 04:39:28;;;;;;;11.52;3.40;;;7.30;1.00;;;;;;5035382;28;20116;-85
2021/01/30 04:42:30;;;;;;;10.82;3.25;;;7.20;1.00;;;;;;5034663;28;20064;-85
2021/01/30 04:45:15;;;;;;;12.93;4.28;;;7.20;1.00;;;;;;5032874;28;20124;-85
2021/01/30 04:47:59;;;;;;;11.95;3.53;;;7.20;1.00;;;;;;5034725;28;20068;-85
2021/01/30 04:50:30;;;;;;;9.63;4.03;;;7.30;1.00;;;;;;5034632;28;20029;-85
2021/01/30 04:53:06;;;;;;;11.43;3.95;;;7.40;1.00;;;;;;5034655;28;20026;-85
2021/01/30 04:55:41;;;;;;;12.85;4.20;;;7.90;1.00;;;;;;5034646;28;20479;-85
2021/01/30 04:58:51;;;;;;;10.48;4.30;;;7.40;1.00;;;;;;5034582;28;20108;-85
2021/01/30 05:01:42;;;;;;;11.45;3.13;;;7.40;1.00;;;;;;4996178;28;20042;-85
2021/01/30 05:04:12;;;;;;;11.15;3.28;;;7.50;1.00;;;;;;5014832;28;20442;-86
2021/01/30 05:07:13;;;;;;;10.00;3.35;;;7.50;1.00;;;;;;5030402;28;20038;-85
2021/01/30 05:09:47;;;;;;;9.35;2.80;;;7.70;1.00;;;;;;4953705;29;20042;-85
2021/01/30 05:12:40;;;;;;;8.80;3.00;;;7.80;1.00;;;;;;4937421;29;20494;-85
2021/01/30 05:15:35;;;;;;;8.65;2.42;;;8.00;1.00;;;;;;4945383;29;20557;-85
2021/01/30 05:18:06;;;;;;;13.18;2.97;;;8.10;1.00;;;;;;4951135;28;20044;-85
2021/01/30 05:20:37;;;;;;;11.93;3.20;;;8.10;1.00;;;;;;4940612;29;20031;-85
2021/01/30 05:23:09;;;;;;;8.02;2.40;;;8.20;99.90;;;;;;4947796;29;20494;-85
2021/01/30 05:25:35;;;;;;;12.18;3.00;;;8.20;99.90;;;;;;4950498;29;20027;-85
2021/01/30 05:28:39;;;;;;;5.93;2.53;;;8.30;99.90;;;;;;4942260;29;20039;-85
2021/01/30 05:31:34;;;;;;;7.88;2.67;;;8.20;1.00;;;;;;4896418;29;20410;-85
2021/01/30 05:34:29;;;;;;;7.93;2.50;;;8.10;1.00;;;;;;4892037;29;20036;-85
2021/01/30 05:37:19;;;;;;;10.38;2.58;;;8.00;1.00;;;;;;4880840;29;20040;-85
2021/01/30 05:40:04;;;;;;;10.40;2.50;;;8.10;1.00;;;;;;4896581;29;20033;-85
2021/01/30 05:42:51;;;;;;;12.70;4.95;;;8.00;1.00;;;;;;4896286;29;20044;-85
2021/01/30 05:45:32;;;;;;;12.52;4.95;;;7.80;1.00;;;;;;4926862;29;20043;-85
2021/01/30 05:47:58;;;;;;;11.43;4.25;;;7.70;1.00;;;;;;4953242;29;20083;-85
2021/01/30 05:50:24;;;;;;;9.30;4.05;;;7.60;1.00;;;;;;4953171;29;20031;-86
2021/01/30 05:52:50;;;;;;;12.30;3.78;;;7.60;1.00;;;;;;4953361;29;20034;-85
2021/01/30 05:55:27;;;;;;;11.10;3.45;;;8.10;1.00;;;;;;4953250;29;20047;-85
2021/01/30 05:57:56;;;;;;;11.88;2.60;;;7.70;1.00;;;;;;4953342;29;20062;-86
2021/01/30 06:00:22;;;;;;;7.85;2.20;;;8.30;1.00;;;;;;4952042;29;20042;-85
2021/01/30 06:03:06;;;;;;;10.30;2.78;;;8.10;1.00;;;;;;5021101;28;20518;-85
2021/01/30 06:05:35;;;;;;;10.63;2.35;;;8.30;1.00;;;;;;5016537;28;20044;-86
2021/01/30 06:08:29;;;;;;;9.10;2.53;;;8.20;1.00;;;;;;5032937;28;20053;-85
2021/01/30 06:11:07;;;;;;;11.45;2.53;;;8.30;1.00;;;;;;5028762;28;20041;-86
2021/01/30 06:13:33;;;;;;;10.95;2.83;;;8.30;1.00;;;;;;5032590;28;20487;-85
2021/01/30 06:16:01;;;;;;;9.43;2.55;;;8.40;99.90;;;;;;5032520;28;20026;-86
2021/01/30 06:18:39;;;;;;;12.27;3.00;;;8.30;1.00;;;;;;5032700;28;20029;-85
2021/01/30 06:21:11;;;;;;;9.85;2.60;;;8.40;1.00;;;;;;5032668;28;20026;-86
2021/01/30 06:23:38;;;;;;;9.55;3.03;;;8.50;99.90;;;;;;5032826;28;20156;-85
2021/01/30 06:26:19;;;;;;;15.32;3.90;;;8.50;1.00;;;;;;5032680;28;20025;-85
2021/01/30 06:28:55;;;;;;;8.77;2.80;;;8.50;1.00;;;;;;5031601;28;20033;-85
2021/01/30 06:31:39;;;;;;;9.15;2.72;;;8.50;1.00;;;;;;5031639;28;20021;-85
2021/01/30 06:34:27;;;;;;;11.05;3.00;;;8.50;1.00;;;;;;5032595;28;20045;-85
2021/01/30 06:36:53;;;;;;;10.30;2.90;;;8.50;1.00;;;;;;5032600;28;20029;-85
2021/01/30 06:39:43;;;;;;;8.10;2.50;;;8.60;1.00;;;;;;5033104;28;20026;-85
2021/01/30 06:42:33;;;;;;;6.82;2.75;;;8.60;1.00;;;;;;5032139;28;20025;-86
2021/01/30 06:45:06;;;;;;;20.65;3.22;;;8.50;1.00;;;;;;5032176;28;20040;-85
2021/01/30 06:47:44;;;;;;;11.43;2.35;;;8.50;1.00;;;;;;5032349;28;20025;-85
2021/01/30 06:50:33;;;;;;;11.35;2.65;;;8.50;1.00;;;;;;5033145;28;20433;-85
2021/01/30 06:53:32;;;;;;;8.32;2.40;;;8.50;1.00;;;;;;5033201;28;20048;-85
2021/01/30 06:56:32;;;;;;;11.30;3.03;;;8.40;1.00;;;;;;4948660;28;20097;-85
2021/01/30 06:59:07;;;;;;;10.93;3.17;;;8.40;1.00;;;;;;4970016;28;20030;-86
2021/01/30 07:01:45;;;;;;;10.00;2.53;;;8.40;1.00;;;;;;4971817;28;20125;-86
2021/01/30 07:04:43;;;;;;;8.85;2.28;;;8.30;1.00;;;;;;4972187;28;20023;-86
2021/01/30 07:07:23;;;;;;;10.82;2.55;;;8.30;1.00;;;;;;4964226;28;20057;-85
2021/01/30 07:10:09;;;;;;;8.32;2.25;;;8.40;1.00;;;;;;4971053;28;20563;-85
2021/01/30 07:13:03;;;;;;;12.82;3.47;;;8.40;1.00;;;;;;4964791;28;20506;-86
2021/01/30 07:15:36;;;;;;;11.20;3.45;;;8.50;1.00;;;;;;4909381;29;20130;-90
2021/01/30 07:18:04;;;;;;;7.25;2.20;;;8.50;1.00;;;;;;4913723;29;20040;-85
2021/01/30 07:21:10;;;;;;;8.85;2.03;;;8.60;1.00;;;;;;4914233;29;20044;-87
2021/01/30 07:23:49;;;;;;;10.95;2.67;;;8.70;1.00;;;;;;4913199;29;20411;-86
2021/01/30 07:26:24;;;;;;;8.93;2.33;;;8.70;1.00;;;;;;4914210;29;20121;-86
2021/01/30 07:28:59;;;;;;;11.75;3.63;;;8.80;1.00;;;;;;4914287;29;20032;-86
2021/01/30 07:31:30;;;;;;;10.23;3.30;;;8.80;1.00;;;;;;4939827;28;20031;-87
2021/01/30 07:34:19;;;;;;;8.45;2.88;;;8.90;1.00;;;;;;4955740;28;20035;-86
2021/01/30 07:36:57;;;;;;;6.45;2.15;;;8.90;1.00;;;;;;4972078;28;20542;-87
2021/01/30 07:39:25;;;;;;;7.65;2.50;;;9.00;99.90;;;;;;4971432;28;20070;-85
2021/01/30 07:42:14;;;;;;;7.20;2.20;;;9.10;1.00;;;;;;4973545;28;20489;-85
2021/01/30 07:45:01;;;;;;;9.07;2.67;;;9.00;99.90;;;;;;4955931;29;20047;-84
2021/01/30 07:47:47;;;;;;;6.35;2.17;;;9.10;99.90;;;;;;4956113;29;20031;-84
2021/01/30 07:50:28;;;;;;;4.88;1.83;;;9.10;99.90;;;;;;4956534;29;20111;-84
2021/01/30 07:52:56;;;;;;;6.88;2.63;;;9.20;1.00;;;;;;4996710;28;20038;-84
2021/01/30 07:55:22;;;;;;;8.40;2.28;;;9.20;1.00;;;;;;5025819;28;20091;-84
2021/01/30 07:58:21;;;;;;;7.13;1.95;;;9.20;99.90;;;;;;5033785;28;20033;-84
2021/01/30 08:01:03;;;;;;;9.60;2.45;;;9.40;99.90;;;;;;5035662;28;20024;-84
2021/01/30 08:03:31;;;;;;;6.97;1.85;;;9.50;99.90;;;;;;5035939;28;20036;-84
2021/01/30 08:05:57;;;;;;;8.90;2.55;;;9.50;99.90;;;;;;5036137;28;20135;-84
2021/01/30 08:08:45;;;;;;;7.93;2.72;;;9.50;99.90;;;;;;5036010;28;20029;-84
2021/01/30 08:11:32;;;;;;;6.05;1.83;;;9.60;99.90;;;;;;5034899;28;20376;-85
2021/01/30 08:14:07;;;;;;;8.50;2.53;;;9.50;1.00;;;;;;5033478;28;20033;-84
2021/01/30 08:16:48;;;;;;;5.65;2.53;;;9.60;99.90;;;;;;5036016;28;20032;-85
2021/01/30 08:19:43;;;;;;;9.27;2.67;;;9.70;99.90;;;;;;5036376;28;20048;-84
2021/01/30 08:22:17;;;;;;;5.65;2.15;;;9.70;99.90;;;;;;5035299;28;20179;-84
2021/01/30 08:24:55;;;;;;;7.22;2.17;;;9.80;99.90;;;;;;5035966;28;20064;-84
2021/01/30 08:27:27;;;;;;;6.65;2.15;;;9.80;99.90;;;;;;5035026;28;20416;-84
2021/01/30 08:30:00;;;;;;;5.72;2.45;;;9.80;99.90;;;;;;5035758;28;20022;-84
2021/01/30 08:32:25;;;;;;;8.43;2.38;;;9.80;99.90;;;;;;5035774;28;20033;-84
2021/01/30 08:35:18;;;;;;;8.15;2.55;;;9.80;99.90;;;;;;5033770;28;20026;-87
2021/01/30 08:38:01;;;;;;;6.55;2.10;;;9.80;99.90;;;;;;5020809;28;20033;-88
2021/01/30 08:40:56;;;;;;;7.55;2.58;;;9.80;99.90;;;;;;5017097;28;20018;-84
2021/01/30 08:43:43;;;;;;;8.30;2.35;;;9.80;99.90;;;;;;5034027;28;20029;-85
2021/01/30 08:46:38;;;;;;;5.40;2.10;;;9.80;99.90;;;;;;5035022;28;20018;-85
2021/01/30 08:49:04;;;;;;;7.97;2.72;;;9.80;99.90;;;;;;5033410;28;20129;-86
2021/01/30 08:51:30;;;;;;;9.82;3.60;;;9.80;99.90;;;;;;5034908;28;20546;-88
2021/01/30 08:53:57;;;;;;;9.88;3.58;;;9.90;99.90;;;;;;5033559;28;20026;-86
2021/01/30 08:56:49;;;;;;;8.80;2.30;;;9.90;99.90;;;;;;5032916;28;20022;-85
2021/01/30 08:59:47;;;;;;;6.97;2.30;;;9.90;99.90;;;;;;5033471;28;20022;-85
2021/01/30 09:02:28;;;;;;;6.05;1.95;;;10.00;99.90;;;;;;5033808;28;20017;-85
2021/01/30 09:05:10;;;;;;;7.40;2.20;;;10.00;99.90;;;;;;5034615;28;20051;-85
2021/01/30 09:07:52;;;;;;;5.72;2.03;;;10.10;99.90;;;;;;5033114;28;20132;-85
2021/01/30 09:11:10;;;;;;;5.07;2.15;;;10.10;99.90;;;;;;5034567;28;20025;-85
2021/01/30 09:14:00;;;;;;;7.78;2.25;;;10.10;99.90;;;;;;4935861;29;20039;-85
2021/01/30 09:16:37;;;;;;;10.00;2.33;;;10.20;99.90;;;;;;4954028;29;20040;-85
2021/01/30 09:19:08;;;;;;;6.50;2.65;;;10.20;99.90;;;;;;4954273;29;20030;-84
2021/01/30 09:22:02;;;;;;;8.63;2.25;;;10.10;99.90;;;;;;4954013;29;20122;-87
2021/01/30 09:24:58;;;;;;;8.18;2.15;;;10.10;99.90;;;;;;4951524;29;20043;-86
2021/01/30 09:27:28;;;;;;;6.13;2.30;;;10.10;99.90;;;;;;4936978;28;20030;-86
2021/01/30 09:29:57;;;;;;;7.35;2.00;;;10.10;99.90;;;;;;4944946;29;20451;-88
2021/01/30 09:32:41;;;;;;;10.68;2.30;;;10.10;99.90;;;;;;4953326;29;20051;-87
2021/01/30 09:35:11;;;;;;;7.88;2.60;;;10.10;99.90;;;;;;4953870;29;20043;-86
2021/01/30 09:37:41;;;;;;;9.32;2.80;;;10.10;99.90;;;;;;4937415;29;20019;-86
2021/01/30 09:40:18;;;;;;;7.15;2.67;;;10.10;99.90;;;;;;4951635;28;20031;-86
2021/01/30 09:42:55;;;;;;;8.15;2.45;;;10.10;99.90;;;;;;4952459;29;20079;-91
2021/01/30 09:45:22;;;;;;;7.32;2.80;;;10.20;99.90;;;;;;4935197;29;20420;-87
2021/01/30 09:47:50;;;;;;;8.88;3.42;;;10.30;99.90;;;;;;4958939;28;20027;-87
2021/01/30 09:50:36;;;;;;;8.80;3.83;;;10.30;99.90;;;;;;5033767;28;20031;-87
2021/01/30 09:53:23;;;;;;;11.55;3.88;;;10.30;99.90;;;;;;5033953;28;20498;-87
2021/01/30 09:56:16;;;;;;;7.53;3.22;;;10.40;99.90;;;;;;5032152;28;20065;-86
2021/01/30 09:58:45;;;;;;;8.65;3.05;;;10.50;99.90;;;;;;5033872;28;20028;-87
2021/01/30 10:01:26;;;;;;;14.65;3.80;;;10.50;99.90;;;;;;5033752;28;20037;-87
2021/01/30 10:03:53;;;;;;;9.68;4.00;;;10.60;99.90;;;;;;5033482;28;20025;-87
2021/01/30 10:06:25;;;;;;;11.13;3.85;;;10.60;99.90;;;;;;5030807;28;20042;-86
2021/01/30 10:08:51;;;;;;;8.02;2.83;;;10.60;99.90;;;;;;5031835;28;20438;-86
2021/01/30 10:11:21;;;;;;;8.52;2.63;;;10.60;99.90;;;;;;5032134;28;20092;-86
2021/01/30 10:13:58;;;;;;;5.68;2.13;;;10.50;99.90;;;;;;5032951;28;20112;-86
2021/01/30 10:16:25;;;;;;;7.88;2.58;;;10.60;99.90;;;;;;5032913;28;20394;-88
2021/01/30 10:19:01;;;;;;;7.13;1.90;;;10.60;99.90;;;;;;5033254;28;20505;-89
2021/01/30 10:21:29;;;;;;;6.75;2.28;;;10.60;99.90;;;;;;5033113;28;20026;-89
2021/01/30 10:23:55;;;;;;;7.72;1.88;;;10.70;99.90;;;;;;5032278;28;20049;-85
2021/01/30 10:26:28;;;;;;;8.80;2.00;;;10.70;99.90;;;;;;5032033;28;20510;-86
2021/01/30 10:29:08;;;;;;;6.30;2.15;;;10.70;99.90;;;;;;5032972;28;20386;-85
2021/01/30 10:31:38;;;;;;;12.50;7.45;;;10.60;99.90;;;;;;5013473;28;20037;-87
2021/01/30 10:34:10;;;;;;;21.90;14.60;;;10.60;99.90;;;;;;5026838;28;20022;-86
2021/01/30 10:36:38;;;;;;;17.05;11.27;;;10.60;99.90;;;;;;5032340;28;20041;-86
2021/01/30 10:39:05;;;;;;;42.70;20.98;;;10.70;99.90;;;;;;5032589;28;20360;-86
2021/01/30 10:41:32;;;;;;;14.65;6.63;;;10.70;99.90;;;;;;5031962;28;20088;-87
2021/01/30 10:44:02;;;;;;;9.50;3.40;;;10.70;99.90;;;;;;5031274;28;20070;-86
2021/01/30 10:46:30;;;;;;;11.32;3.83;;;10.60;99.90;;;;;;5031099;28;20388;-86
2021/01/30 10:49:07;;;;;;;7.95;3.65;;;10.60;99.90;;;;;;5031786;28;20053;-85
2021/01/30 10:51:36;;;;;;;11.43;6.07;;;10.60;99.90;;;;;;5031716;28;20025;-85
2021/01/30 10:54:25;;;;;;;9.73;6.15;;;10.60;99.90;;;;;;5031713;28;20116;-86
2021/01/30 10:57:18;;;;;;;11.02;6.07;;;10.60;99.90;;;;;;5031683;28;20021;-86
2021/01/30 10:59:54;;;;;;;9.05;3.15;;;10.50;99.90;;;;;;5031386;28;20115;-86
2021/01/30 11:02:19;;;;;;;7.30;3.15;;;10.30;99.90;;;;;;5032146;28;20032;-85
2021/01/30 11:05:09;;;;;;;7.43;2.92;;;10.20;99.90;;;;;;5032177;28;20029;-86
2021/01/30 11:07:44;;;;;;;10.25;3.35;;;9.90;1.00;;;;;;5031304;28;20045;-85
2021/01/30 11:10:22;;;;;;;13.00;5.93;;;9.80;99.90;;;;;;5030996;28;20092;-86
2021/01/30 11:12:48;;;;;;;7.18;3.75;;;9.70;1.00;;;;;;5030847;28;20036;-87
2021/01/30 11:15:23;;;;;;;9.50;3.75;;;9.60;1.00;;;;;;5031241;28;20031;-87
2021/01/30 11:17:50;;;;;;;8.45;4.18;;;9.70;1.00;;;;;;5031346;28;20034;-86
2021/01/30 11:20:48;;;;;;;11.55;4.43;;;9.60;1.00;;;;;;5031895;28;20108;-87
2021/01/30 11:23:32;;;;;;;9.55;4.40;;;9.60;1.00;;;;;;5030887;28;20487;-87
2021/01/30 11:26:09;;;;;;;7.43;3.38;;;9.50;1.00;;;;;;5029726;28;20159;-87
2021/01/30 11:28:35;;;;;;;8.38;3.88;;;9.50;1.00;;;;;;5031898;28;20024;-88
2021/01/30 11:31:02;;;;;;;6.53;2.50;;;9.50;1.00;;;;;;5031316;28;20029;-86
2021/01/30 11:33:29;;;;;;;5.15;2.45;;;9.50;1.00;;;;;;5031787;28;20154;-88
2021/01/30 11:35:55;;;;;;;6.53;2.80;;;9.60;1.00;;;;;;5031612;28;20022;-88
2021/01/30 11:38:25;;;;;;;10.43;2.88;;;9.60;1.00;;;;;;5029752;28;20030;-87
2021/01/30 11:40:53;;;;;;;6.07;2.47;;;9.60;1.00;;;;;;5028920;28;20459;-86
2021/01/30 11:43:19;;;;;;;7.82;3.00;;;9.50;1.00;;;;;;5030510;28;20475;-86
2021/01/30 11:45:45;;;;;;;6.40;2.53;;;9.50;1.00;;;;;;5031528;28;20491;-87
2021/01/30 11:48:12;;;;;;;5.15;2.47;;;9.50;1.00;;;;;;5030921;28;20064;-87
2021/01/30 11:50:38;;;;;;;8.43;2.53;;;9.60;1.00;;;;;;5031499;28;20030;-90
2021/01/30 11:53:10;;;;;;;10.55;2.75;;;9.60;1.00;;;;;;5031292;28;20018;-88
2021/01/30 11:55:37;;;;;;;7.60;2.90;;;9.60;1.00;;;;;;5030983;28;20481;-88
2021/01/30 11:58:03;;;;;;;9.35;2.72;;;9.60;1.00;;;;;;5031063;28;20033;-88
2021/01/30 12:00:29;;;;;;;10.45;3.17;;;9.60;1.00;;;;;;5046156;28;20036;-87
2021/01/30 12:02:54;;;;;;;8.10;3.17;;;9.60;1.00;;;;;;5028938;28;20437;-87
2021/01/30 12:05:20;;;;;;;8.30;2.97;;;9.60;1.00;;;;;;5031702;28;20033;-87
2021/01/30 12:07:46;;;;;;;10.40;2.20;;;9.60;1.00;;;;;;5031121;28;20506;-87
2021/01/30 12:10:13;;;;;;;11.98;2.88;;;9.60;1.00;;;;;;5031099;28;20032;-85
2021/01/30 12:12:39;;;;;;;13.55;2.85;;;9.60;1.00;;;;;;5030315;28;20056;-89
2021/01/30 12:15:07;;;;;;;8.30;3.10;;;9.60;1.00;;;;;;5032069;28;20091;-90
2021/01/30 12:17:41;;;;;;;10.95;3.40;;;9.60;1.00;;;;;;5031564;28;20041;-88
2021/01/30 12:20:22;;;;;;;13.43;4.80;;;9.70;1.00;;;;;;5029626;28;20057;-86
2021/01/30 12:22:49;;;;;;;17.90;8.15;;;9.70;1.00;;;;;;5029293;28;20053;-86
2021/01/30 12:25:16;;;;;;;12.88;4.57;;;9.70;1.00;;;;;;5029931;28;20021;-86
2021/01/30 12:27:51;;;;;;;12.95;4.35;;;9.70;1.00;;;;;;5032361;28;20121;-86
2021/01/30 12:30:19;;;;;;;8.93;3.33;;;9.80;1.00;;;;;;5035585;28;20025;-84
2021/01/30 12:32:44;;;;;;;10.77;3.58;;;9.70;1.00;;;;;;5033123;28;20108;-89
2021/01/30 12:35:11;;;;;;;9.50;2.85;;;9.70;1.00;;;;;;5034716;28;20113;-86
2021/01/30 12:37:38;;;;;;;7.90;2.30;;;9.70;1.00;;;;;;5034240;28;20048;-86
2021/01/30 12:40:05;;;;;;;10.40;2.97;;;9.70;1.00;;;;;;5032251;28;20039;-86
2021/01/30 12:42:30;;;;;;;4.35;1.98;;;9.70;1.00;;;;;;5033910;28;20025;-85
2021/01/30 12:44:56;;;;;;;98.55;13.38;;;9.60;1.00;;;;;;5033978;28;20087;-85
2021/01/30 12:47:45;;;;;;;80.63;9.65;;;9.60;1.00;;;;;;5034468;28;20101;-85
2021/01/30 12:50:14;;;;;;;49.17;7.13;;;9.70;1.00;;;;;;5034847;28;20064;-85
2021/01/30 12:52:40;;;;;;;13.13;2.47;;;9.60;1.00;;;;;;5035794;28;20056;-85
2021/01/30 12:55:06;;;;;;;14.48;2.88;;;9.60;1.00;;;;;;5034803;28;20449;-85
2021/01/30 12:57:32;;;;;;;14.85;3.05;;;9.60;1.00;;;;;;5034868;28;20514;-85
2021/01/30 12:59:58;;;;;;;13.20;2.67;;;9.60;1.00;;;;;;5035421;28;20056;-86
2021/01/30 13:02:23;;;;;;;16.05;3.70;;;9.70;1.00;;;;;;5034694;28;20021;-86
2021/01/30 13:04:49;;;;;;;8.80;2.47;;;9.80;1.00;;;;;;5034603;28;20387;-85
2021/01/30 13:07:14;;;;;;;14.32;2.78;;;9.70;1.00;;;;;;5034917;28;20103;-85
2021/01/30 13:09:40;;;;;;;8.63;3.35;;;9.80;1.00;;;;;;5034636;28;20403;-86
2021/01/30 13:12:10;;;;;;;14.77;3.10;;;9.80;1.00;;;;;;5035279;28;20028;-86
2021/01/30 13:14:38;;;;;;;8.07;3.10;;;9.90;1.00;;;;;;5035277;28;20025;-85
2021/01/30 13:17:04;;;;;;;9.25;3.08;;;9.90;1.00;;;;;;5035118;28;20025;-86
2021/01/30 13:19:30;;;;;;;14.07;2.70;;;9.90;1.00;;;;;;5034503;28;20022;-86
2021/01/30 13:21:56;;;;;;;12.20;2.75;;;9.90;1.00;;;;;;5034655;28;20035;-85
2021/01/30 13:24:21;;;;;;;11.35;2.78;;;9.90;1.00;;;;;;5034356;28;20510;-85
2021/01/30 13:26:47;;;;;;;12.32;2.78;;;10.10;1.00;;;;;;5035045;28;20064;-85
2021/01/30 13:29:18;;;;;;;13.80;2.60;;;10.10;1.00;;;;;;5034868;28;20509;-87
2021/01/30 13:31:47;;;;;;;8.05;2.60;;;9.90;1.00;;;;;;5034426;28;20483;-90
2021/01/30 13:34:13;;;;;;;9.32;2.42;;;10.00;1.00;;;;;;5034322;28;20052;-87